sensor_id;sensor_type;location;lat;lon;timestamp;pressure;altitude;pressure_sealevel;temperature;humidity
69198;BME280;56311;50.298;8.514;2022-12-05T00:00:56;97578.31;;;0.19;100.00
69198;BME280;56311;50.298;8.514;2022-12-05T00:03:22;97581.53;;;0.09;100.00
69198;BME280;56311;50.298;8.514;2022-12-05T00:05:49;97579.91;;;0.08;100.00
69198;BME280;56311;50.298;8.514;2022-12-05T00:08:16;97586.63;;;0.11;100.00
69198;BME280;56311;50.298;8.514;2022-12-05T00:10:43;97585.00;;;0.10;100.00
69198;BME280;56311;50.298;8.514;2022-12-05T00:13:10;97579.91;;;0.08;100.00
69198;BME280;56311;50.298;8.514;2022-12-05T00:15:37;97581.81;;;0.01;100.00
69198;BME280;56311;50.298;8.514;2022-12-05T00:18:06;97583.91;;;-0.01;100.00
69198;BME280;56311;50.298;8.514;2022-12-05T00:20:33;97579.25;;;-0.06;100.00
69198;BME280;56311;50.298;8.514;2022-12-05T00:23:00;97579.03;;;-0.04;100.00
69198;BME280;56311;50.298;8.514;2022-12-05T00:25:27;97581.47;;;-0.03;100.00
69198;BME280;56311;50.298;8.514;2022-12-05T00:27:53;97577.78;;;-0.02;100.00
69198;BME280;56311;50.298;8.514;2022-12-05T00:30:20;97576.97;;;-0.02;100.00
69198;BME280;56311;50.298;8.514;2022-12-05T00:32:47;97579.63;;;-0.02;100.00
69198;BME280;56311;50.298;8.514;2022-12-05T00:35:15;97586.34;;;0.01;100.00
69198;BME280;56311;50.298;8.514;2022-12-05T00:37:42;97583.91;;;-0.01;100.00
69198;BME280;56311;50.298;8.514;2022-12-05T00:40:09;97586.78;;;-0.03;100.00
69198;BME280;56311;50.298;8.514;2022-12-05T00:42:36;97590.88;;;0.00;100.00
69198;BME280;56311;50.298;8.514;2022-12-05T00:45:03;97585.31;;;0.02;100.00
69198;BME280;56311;50.298;8.514;2022-12-05T00:47:31;97588.41;;;-0.02;100.00
69198;BME280;56311;50.298;8.514;2022-12-05T00:49:59;97590.69;;;-0.05;100.00
69198;BME280;56311;50.298;8.514;2022-12-05T00:52:27;97596.25;;;-0.07;100.00
69198;BME280;56311;50.298;8.514;2022-12-05T00:54:54;97591.97;;;-0.08;100.00
69198;BME280;56311;50.298;8.514;2022-12-05T00:57:21;97596.25;;;-0.07;100.00
69198;BME280;56311;50.298;8.514;2022-12-05T00:59:48;97605.63;;;-0.04;100.00
69198;BME280;56311;50.298;8.514;2022-12-05T01:02:14;97605.19;;;-0.01;100.00
69198;BME280;56311;50.298;8.514;2022-12-05T01:04:41;97605.19;;;-0.01;100.00
69198;BME280;56311;50.298;8.514;2022-12-05T01:07:08;97608.28;;;-0.04;100.00
69198;BME280;56311;50.298;8.514;2022-12-05T01:09:36;97609.41;;;-0.12;100.00
69198;BME280;56311;50.298;8.514;2022-12-05T01:12:04;97613.25;;;-0.08;100.00
69198;BME280;56311;50.298;8.514;2022-12-05T01:14:31;97618.56;;;-0.08;100.00
69198;BME280;56311;50.298;8.514;2022-12-05T01:16:57;97624.91;;;-0.09;100.00
69198;BME280;56311;50.298;8.514;2022-12-05T01:19:26;97630.22;;;-0.09;100.00
69198;BME280;56311;50.298;8.514;2022-12-05T01:21:54;97627.13;;;-0.06;100.00
69198;BME280;56311;50.298;8.514;2022-12-05T01:24:22;97624.59;;;2.21;100.00
69198;BME280;56311;50.298;8.514;2022-12-05T01:26:51;97627.91;;;2.41;100.00
69198;BME280;56311;50.298;8.514;2022-12-05T01:29:19;97631.31;;;1.71;100.00
69198;BME280;56311;50.298;8.514;2022-12-05T01:31:46;97630.13;;;1.20;100.00
69198;BME280;56311;50.298;8.514;2022-12-05T01:34:15;97633.06;;;0.88;100.00
69198;BME280;56311;50.298;8.514;2022-12-05T01:36:43;97631.41;;;0.63;100.00
69198;BME280;56311;50.298;8.514;2022-12-05T01:39:11;97632.69;;;0.42;100.00
69198;BME280;56311;50.298;8.514;2022-12-05T01:41:40;97632.06;;;0.28;100.00
69198;BME280;56311;50.298;8.514;2022-12-05T01:47:09;97638.72;;;0.19;100.00
69198;BME280;56311;50.298;8.514;2022-12-05T01:49:38;97634.88;;;0.14;100.00
69198;BME280;56311;50.298;8.514;2022-12-05T01:52:09;97632.81;;;0.17;100.00
69198;BME280;56311;50.298;8.514;2022-12-05T01:54:37;97633.09;;;0.08;100.00
69198;BME280;56311;50.298;8.514;2022-12-05T01:57:07;97626.16;;;0.07;100.00
69198;BME280;56311;50.298;8.514;2022-12-05T01:59:37;97627.56;;;0.10;100.00
69198;BME280;56311;50.298;8.514;2022-12-05T02:02:06;97631.69;;;0.06;100.00
69198;BME280;56311;50.298;8.514;2022-12-05T02:04:38;97636.22;;;0.05;100.00
69198;BME280;56311;50.298;8.514;2022-12-05T02:07:07;97641.06;;;0.08;100.00
69198;BME280;56311;50.298;8.514;2022-12-05T02:09:34;97637.03;;;0.06;100.00
69198;BME280;56311;50.298;8.514;2022-12-05T02:12:02;97633.75;;;0.04;100.00
69198;BME280;56311;50.298;8.514;2022-12-05T02:14:34;97637.91;;;-0.01;100.00
69198;BME280;56311;50.298;8.514;2022-12-05T02:17:12;97638.06;;;0.05;100.00
69198;BME280;56311;50.298;8.514;2022-12-05T02:20:11;97645.00;;;0.06;100.00
69198;BME280;56311;50.298;8.514;2022-12-05T02:23:06;97642.34;;;0.06;100.00
69198;BME280;56311;50.298;8.514;2022-12-05T02:26:24;97640.28;;;0.08;100.00
69198;BME280;56311;50.298;8.514;2022-12-05T02:31:52;97642.34;;;0.06;100.00
69198;BME280;56311;50.298;8.514;2022-12-05T02:34:27;97647.66;;;0.06;100.00
69198;BME280;56311;50.298;8.514;2022-12-05T02:37:02;97638.66;;;0.07;100.00
69198;BME280;56311;50.298;8.514;2022-12-05T02:39:38;97648.03;;;0.09;100.00
69198;BME280;56311;50.298;8.514;2022-12-05T02:42:09;97651.59;;;0.03;100.00
69198;BME280;56311;50.298;8.514;2022-12-05T02:44:43;97648.31;;;0.01;100.00
69198;BME280;56311;50.298;8.514;2022-12-05T02:47:12;97646.50;;;0.02;100.00
69198;BME280;56311;50.298;8.514;2022-12-05T02:49:41;97642.34;;;0.06;100.00
69198;BME280;56311;50.298;8.514;2022-12-05T02:52:12;97639.81;;;0.11;100.00
69198;BME280;56311;50.298;8.514;2022-12-05T02:54:41;97642.34;;;0.06;100.00
69198;BME280;56311;50.298;8.514;2022-12-05T02:57:10;97645.97;;;0.11;100.00
69198;BME280;56311;50.298;8.514;2022-12-05T02:59:38;97635.94;;;0.13;100.00
69198;BME280;56311;50.298;8.514;2022-12-05T03:02:07;97629.91;;;0.18;100.00
69198;BME280;56311;50.298;8.514;2022-12-05T03:04:35;97628.88;;;0.19;100.00
69198;BME280;56311;50.298;8.514;2022-12-05T03:07:05;97632.56;;;0.18;100.00
69198;BME280;56311;50.298;8.514;2022-12-05T03:09:36;97635.09;;;0.13;100.00
69198;BME280;56311;50.298;8.514;2022-12-05T03:12:09;97631.69;;;0.06;100.00
69198;BME280;56311;50.298;8.514;2022-12-05T03:14:41;97641.31;;;0.07;100.00
69198;BME280;56311;50.298;8.514;2022-12-05T03:17:12;97640.66;;;0.11;100.00
69198;BME280;56311;50.298;8.514;2022-12-05T03:19:49;97636.13;;;0.12;100.00
69198;BME280;56311;50.298;8.514;2022-12-05T03:22:21;97636.59;;;0.09;100.00
69198;BME280;56311;50.298;8.514;2022-12-05T03:24:52;97640.66;;;0.11;100.00
69198;BME280;56311;50.298;8.514;2022-12-05T03:27:21;97642.03;;;0.14;100.00
69198;BME280;56311;50.298;8.514;2022-12-05T03:29:55;97637.63;;;0.08;100.00
69198;BME280;56311;50.298;8.514;2022-12-05T03:32:25;97634.13;;;0.07;100.00
69198;BME280;56311;50.298;8.514;2022-12-05T03:35:03;97643.97;;;0.07;100.00
69198;BME280;56311;50.298;8.514;2022-12-05T03:37:40;97645.22;;;0.04;100.00
69198;BME280;56311;50.298;8.514;2022-12-05T03:40:14;97641.91;;;0.09;100.00
69198;BME280;56311;50.298;8.514;2022-12-05T03:42:49;97649.44;;;0.12;100.00
69198;BME280;56311;50.298;8.514;2022-12-05T03:45:23;97653.72;;;0.13;100.00
69198;BME280;56311;50.298;8.514;2022-12-05T03:47:58;97657.78;;;0.15;100.00
69198;BME280;56311;50.298;8.514;2022-12-05T03:50:29;97658.00;;;0.14;100.00
69198;BME280;56311;50.298;8.514;2022-12-05T03:52:59;97659.69;;;0.08;100.00
69198;BME280;56311;50.298;8.514;2022-12-05T03:55:49;97656.25;;;0.08;100.00
69198;BME280;56311;50.298;8.514;2022-12-05T03:58:23;97656.38;;;0.13;100.00
69198;BME280;56311;50.298;8.514;2022-12-05T04:00:53;97661.25;;;0.16;100.00
69198;BME280;56311;50.298;8.514;2022-12-05T04:03:27;97661.03;;;0.18;100.00
69198;BME280;56311;50.298;8.514;2022-12-05T04:06:10;97662.91;;;0.17;100.00
69198;BME280;56311;50.298;8.514;2022-12-05T04:08:40;97660.28;;;0.10;100.00
69198;BME280;56311;50.298;8.514;2022-12-05T04:11:11;97663.94;;;0.16;100.00
69198;BME280;56311;50.298;8.514;2022-12-05T04:13:41;97660.91;;;0.12;100.00
69198;BME280;56311;50.298;8.514;2022-12-05T04:16:10;97665.19;;;0.13;100.00
69198;BME280;56311;50.298;8.514;2022-12-05T04:19:01;97669.25;;;0.16;100.00
69198;BME280;56311;50.298;8.514;2022-12-05T04:21:34;97667.16;;;0.18;100.00
69198;BME280;56311;50.298;8.514;2022-12-05T04:24:09;97665.19;;;0.13;100.00
69198;BME280;56311;50.298;8.514;2022-12-05T04:27:15;97672.94;;;0.15;100.00
69198;BME280;56311;50.298;8.514;2022-12-05T04:29:52;97676.34;;;0.22;100.00
69198;BME280;56311;50.298;8.514;2022-12-05T04:32:25;97679.59;;;0.24;100.00
69198;BME280;56311;50.298;8.514;2022-12-05T04:34:58;97680.63;;;0.23;100.00
69198;BME280;56311;50.298;8.514;2022-12-05T04:37:30;97684.09;;;0.24;100.00
69198;BME280;56311;50.298;8.514;2022-12-05T04:40:03;97679.22;;;0.21;100.00
69198;BME280;56311;50.298;8.514;2022-12-05T04:42:33;97689.19;;;0.25;100.00
69198;BME280;56311;50.298;8.514;2022-12-05T04:45:02;97691.28;;;0.23;100.00
69198;BME280;56311;50.298;8.514;2022-12-05T04:47:35;97689.41;;;0.24;100.00
69198;BME280;56311;50.298;8.514;2022-12-05T04:50:04;97690.25;;;0.24;100.00
69198;BME280;56311;50.298;8.514;2022-12-05T04:52:33;97696.00;;;0.21;100.00
69198;BME280;56311;50.298;8.514;2022-12-05T04:55:04;97695.63;;;0.18;100.00
69198;BME280;56311;50.298;8.514;2022-12-05T04:57:38;97695.84;;;0.16;100.00
69198;BME280;56311;50.298;8.514;2022-12-05T05:00:07;97696.22;;;0.20;100.00
69198;BME280;56311;50.298;8.514;2022-12-05T05:02:39;97697.91;;;0.14;100.00
69198;BME280;56311;50.298;8.514;2022-12-05T05:05:10;97703.47;;;0.12;100.00
69198;BME280;56311;50.298;8.514;2022-12-05T05:07:46;97700.81;;;0.12;100.00
69198;BME280;56311;50.298;8.514;2022-12-05T05:10:17;97697.59;;;0.04;100.00
69198;BME280;56311;50.298;8.514;2022-12-05T05:12:45;97697.97;;;0.07;100.00
69198;BME280;56311;50.298;8.514;2022-12-05T05:15:11;97700.44;;;0.09;100.00
69198;BME280;56311;50.298;8.514;2022-12-05T05:17:38;97698.94;;;0.13;100.00
69198;BME280;56311;50.298;8.514;2022-12-05T05:20:06;97697.91;;;0.14;100.00
69198;BME280;56311;50.298;8.514;2022-12-05T05:22:55;97703.09;;;0.09;100.00
69198;BME280;56311;50.298;8.514;2022-12-05T05:25:23;97704.50;;;0.11;100.00
69198;BME280;56311;50.298;8.514;2022-12-05T05:27:52;97705.28;;;0.12;100.00
69198;BME280;56311;50.298;8.514;2022-12-05T05:30:19;97708.56;;;0.14;100.00
69198;BME280;56311;50.298;8.514;2022-12-05T05:32:47;97713.44;;;0.17;100.00
69198;BME280;56311;50.298;8.514;2022-12-05T05:35:14;97714.84;;;0.20;100.00
69198;BME280;56311;50.298;8.514;2022-12-05T05:37:41;97713.44;;;0.17;100.00
69198;BME280;56311;50.298;8.514;2022-12-05T05:40:11;97713.44;;;0.17;100.00
69198;BME280;56311;50.298;8.514;2022-12-05T05:42:42;97714.25;;;0.18;100.00
69198;BME280;56311;50.298;8.514;2022-12-05T05:45:10;97714.09;;;0.12;100.00
69198;BME280;56311;50.298;8.514;2022-12-05T05:47:37;97718.41;;;0.13;100.00
69198;BME280;56311;50.298;8.514;2022-12-05T05:50:05;97723.91;;;0.12;100.00
69198;BME280;56311;50.298;8.514;2022-12-05T05:52:33;97724.53;;;0.14;100.00
69198;BME280;56311;50.298;8.514;2022-12-05T05:55:00;97723.13;;;0.11;100.00
69198;BME280;56311;50.298;8.514;2022-12-05T05:57:29;97721.25;;;0.12;100.00
69198;BME280;56311;50.298;8.514;2022-12-05T05:59:55;97720.81;;;0.15;100.00
69198;BME280;56311;50.298;8.514;2022-12-05T06:02:22;97726.53;;;0.19;100.00
69198;BME280;56311;50.298;8.514;2022-12-05T06:04:49;97726.56;;;0.12;100.00
69198;BME280;56311;50.298;8.514;2022-12-05T06:07:16;97737.06;;;0.07;100.00
69198;BME280;56311;50.298;8.514;2022-12-05T06:09:43;97735.00;;;0.09;100.00
69198;BME280;56311;50.298;8.514;2022-12-05T06:12:09;97745.44;;;0.10;100.00
69198;BME280;56311;50.298;8.514;2022-12-05T06:14:37;97740.25;;;0.15;100.00
69198;BME280;56311;50.298;8.514;2022-12-05T06:17:04;97743.75;;;0.16;100.00
69198;BME280;56311;50.298;8.514;2022-12-05T06:19:30;97741.50;;;0.13;100.00
69198;BME280;56311;50.298;8.514;2022-12-05T06:21:57;97746.59;;;0.14;100.00
69198;BME280;56311;50.298;8.514;2022-12-05T06:24:24;97744.16;;;0.13;100.00
69198;BME280;56311;50.298;8.514;2022-12-05T06:26:50;97739.88;;;0.12;100.00
69198;BME280;56311;50.298;8.514;2022-12-05T06:29:17;97732.19;;;0.04;100.00
69198;BME280;56311;50.298;8.514;2022-12-05T06:31:51;97742.81;;;0.04;100.00
69198;BME280;56311;50.298;8.514;2022-12-05T06:34:18;97741.78;;;0.05;100.00
69198;BME280;56311;50.298;8.514;2022-12-05T06:36:45;97748.81;;;-0.01;100.00
69198;BME280;56311;50.298;8.514;2022-12-05T06:39:12;97748.38;;;0.02;100.00
69198;BME280;56311;50.298;8.514;2022-12-05T06:41:38;97744.44;;;0.05;100.00
69198;BME280;56311;50.298;8.514;2022-12-05T06:44:05;97752.44;;;0.05;100.00
69198;BME280;56311;50.298;8.514;2022-12-05T06:46:32;97744.03;;;0.08;100.00
69198;BME280;56311;50.298;8.514;2022-12-05T06:49:00;97744.03;;;0.08;100.00
69198;BME280;56311;50.298;8.514;2022-12-05T06:51:27;97747.72;;;0.07;100.00
69198;BME280;56311;50.298;8.514;2022-12-05T06:53:54;97747.13;;;0.05;100.00
69198;BME280;56311;50.298;8.514;2022-12-05T06:56:21;97744.69;;;0.03;100.00
69198;BME280;56311;50.298;8.514;2022-12-05T06:58:48;97754.66;;;0.08;100.00
69198;BME280;56311;50.298;8.514;2022-12-05T07:01:17;97759.34;;;0.12;100.00
69198;BME280;56311;50.298;8.514;2022-12-05T07:04:06;97762.50;;;0.21;100.00
69198;BME280;56311;50.298;8.514;2022-12-05T07:06:33;97760.44;;;0.23;100.00
69198;BME280;56311;50.298;8.514;2022-12-05T07:09:01;97766.16;;;0.27;100.00
69198;BME280;56311;50.298;8.514;2022-12-05T07:11:28;97769.56;;;0.34;100.00
69198;BME280;56311;50.298;8.514;2022-12-05T07:13:54;97772.28;;;0.27;100.00
69198;BME280;56311;50.298;8.514;2022-12-05T07:16:22;97777.59;;;0.27;100.00
69198;BME280;56311;50.298;8.514;2022-12-05T07:18:49;97773.75;;;0.23;100.00
69198;BME280;56311;50.298;8.514;2022-12-05T07:21:17;97770.50;;;0.21;100.00
69198;BME280;56311;50.298;8.514;2022-12-05T07:23:47;97774.66;;;0.17;100.00
69198;BME280;56311;50.298;8.514;2022-12-05T07:26:18;97774.56;;;0.24;100.00
69198;BME280;56311;50.298;8.514;2022-12-05T07:28:45;97772.28;;;0.27;100.00
69198;BME280;56311;50.298;8.514;2022-12-05T07:31:14;97785.19;;;0.24;100.00
69198;BME280;56311;50.298;8.514;2022-12-05T07:33:42;97783.06;;;0.14;100.00
69198;BME280;56311;50.298;8.514;2022-12-05T07:36:10;97788.75;;;0.18;100.00
69198;BME280;56311;50.298;8.514;2022-12-05T07:38:39;97794.44;;;0.21;100.00
69198;BME280;56311;50.298;8.514;2022-12-05T07:41:08;97793.41;;;0.22;100.00
69198;BME280;56311;50.298;8.514;2022-12-05T07:43:39;97790.66;;;0.29;100.00
69198;BME280;56311;50.298;8.514;2022-12-05T07:46:08;97789.44;;;0.31;100.00
69198;BME280;56311;50.298;8.514;2022-12-05T07:48:37;97794.91;;;0.37;100.00
69198;BME280;56311;50.298;8.514;2022-12-05T07:51:05;97786.91;;;0.37;100.00
69198;BME280;56311;50.298;8.514;2022-12-05T07:53:32;97791.78;;;0.40;100.00
69198;BME280;56311;50.298;8.514;2022-12-05T07:56:01;97794.44;;;0.40;100.00
69198;BME280;56311;50.298;8.514;2022-12-05T07:58:29;97804.72;;;0.36;100.00
69198;BME280;56311;50.298;8.514;2022-12-05T08:00:56;97800.00;;;0.38;100.00
69198;BME280;56311;50.298;8.514;2022-12-05T08:03:24;97800.38;;;0.42;100.00
69198;BME280;56311;50.298;8.514;2022-12-05T08:05:51;97808.59;;;0.40;100.00
69198;BME280;56311;50.298;8.514;2022-12-05T08:08:18;97813.97;;;0.34;100.00
69198;BME280;56311;50.298;8.514;2022-12-05T08:10:45;97813.25;;;0.82;100.00
69198;BME280;56311;50.298;8.514;2022-12-05T08:13:13;97821.09;;;0.95;100.00
69198;BME280;56311;50.298;8.514;2022-12-05T08:15:39;97828.19;;;0.83;100.00
69198;BME280;56311;50.298;8.514;2022-12-05T08:18:06;97823.56;;;0.78;100.00
69198;BME280;56311;50.298;8.514;2022-12-05T08:20:33;97833.22;;;0.73;100.00
69198;BME280;56311;50.298;8.514;2022-12-05T08:23:00;97835.97;;;0.66;100.00
69198;BME280;56311;50.298;8.514;2022-12-05T08:25:27;97833.91;;;0.68;100.00
69198;BME280;56311;50.298;8.514;2022-12-05T08:27:54;97851.22;;;0.77;100.00
69198;BME280;56311;50.298;8.514;2022-12-05T08:30:22;97843.28;;;0.89;100.00
69198;BME280;56311;50.298;8.514;2022-12-05T08:32:49;97841.22;;;0.91;100.00
69198;BME280;56311;50.298;8.514;2022-12-05T08:35:16;97841.66;;;0.88;100.00
69198;BME280;56311;50.298;8.514;2022-12-05T08:37:43;97851.72;;;0.86;100.00
69198;BME280;56311;50.298;8.514;2022-12-05T08:40:10;97845.28;;;0.94;100.00
69198;BME280;56311;50.298;8.514;2022-12-05T08:42:37;97855.00;;;0.88;100.00
69198;BME280;56311;50.298;8.514;2022-12-05T08:45:06;97856.81;;;0.88;100.00
69198;BME280;56311;50.298;8.514;2022-12-05T08:47:34;97858.22;;;0.90;100.00
69198;BME280;56311;50.298;8.514;2022-12-05T08:50:01;97858.69;;;0.87;100.00
69198;BME280;56311;50.298;8.514;2022-12-05T08:52:28;97856.09;;;0.81;100.00
69198;BME280;56311;50.298;8.514;2022-12-05T08:54:56;97864.59;;;0.89;100.00
69198;BME280;56311;50.298;8.514;2022-12-05T08:57:23;97873.31;;;1.15;100.00
69198;BME280;56311;50.298;8.514;2022-12-05T08:59:50;97873.81;;;1.24;100.00
69198;BME280;56311;50.298;8.514;2022-12-05T09:02:18;97871.81;;;1.19;100.00
69198;BME280;56311;50.298;8.514;2022-12-05T09:04:50;97876.88;;;1.09;100.00
69198;BME280;56311;50.298;8.514;2022-12-05T09:07:19;97879.53;;;1.09;100.00
69198;BME280;56311;50.298;8.514;2022-12-05T09:09:47;97881.19;;;1.10;100.00
69198;BME280;56311;50.298;8.514;2022-12-05T09:12:15;97877.03;;;1.14;100.00
69198;BME280;56311;50.298;8.514;2022-12-05T09:14:42;97886.13;;;1.25;100.00
69198;BME280;56311;50.298;8.514;2022-12-05T09:17:10;97886.91;;;1.25;100.00
69198;BME280;56311;50.298;8.514;2022-12-05T09:19:37;97878.56;;;1.22;100.00
69198;BME280;56311;50.298;8.514;2022-12-05T09:22:05;97878.91;;;1.25;100.00
69198;BME280;56311;50.298;8.514;2022-12-05T09:24:32;97888.78;;;1.25;100.00
69198;BME280;56311;50.298;8.514;2022-12-05T09:26:59;97888.84;;;1.18;100.00
69198;BME280;56311;50.298;8.514;2022-12-05T09:29:26;97892.94;;;1.21;100.00
69198;BME280;56311;50.298;8.514;2022-12-05T09:31:54;97897.88;;;1.36;100.00
69198;BME280;56311;50.298;8.514;2022-12-05T09:34:23;97905.75;;;1.31;100.00
69198;BME280;56311;50.298;8.514;2022-12-05T09:36:52;97897.16;;;1.10;100.00
69198;BME280;56311;50.298;8.514;2022-12-05T09:39:42;97901.75;;;1.03;100.00
69198;BME280;56311;50.298;8.514;2022-12-05T09:42:19;97888.50;;;0.96;100.00
69198;BME280;56311;50.298;8.514;2022-12-05T09:47:50;97889.94;;;1.29;100.00
69198;BME280;56311;50.298;8.514;2022-12-05T09:50:21;97891.28;;;1.38;100.00
69198;BME280;56311;50.298;8.514;2022-12-05T09:53:04;97899.50;;;1.37;100.00
69198;BME280;56311;50.298;8.514;2022-12-05T09:55:41;97900.09;;;1.39;100.00
69198;BME280;56311;50.298;8.514;2022-12-05T09:58:18;97892.50;;;1.54;100.00
69198;BME280;56311;50.298;8.514;2022-12-05T10:00:47;97894.50;;;1.59;100.00
69198;BME280;56311;50.298;8.514;2022-12-05T10:03:22;97897.63;;;1.56;100.00
69198;BME280;56311;50.298;8.514;2022-12-05T10:05:59;97895.75;;;1.56;100.00
69198;BME280;56311;50.298;8.514;2022-12-05T10:08:32;97901.31;;;1.55;100.00
69198;BME280;56311;50.298;8.514;2022-12-05T10:11:12;97894.84;;;1.63;100.00
69198;BME280;56311;50.298;8.514;2022-12-05T10:13:47;97895.72;;;1.75;100.00
69198;BME280;56311;50.298;8.514;2022-12-05T10:16:24;97891.06;;;1.70;100.00
69198;BME280;56311;50.298;8.514;2022-12-05T10:18:56;97888.41;;;1.82;100.00
69198;BME280;56311;50.298;8.514;2022-12-05T10:21:29;97891.72;;;1.96;100.00
69198;BME280;56311;50.298;8.514;2022-12-05T10:24:00;97892.41;;;1.91;100.00
69198;BME280;56311;50.298;8.514;2022-12-05T10:26:33;97881.63;;;1.98;100.00
69198;BME280;56311;50.298;8.514;2022-12-05T10:29:11;97882.69;;;1.97;100.00
69198;BME280;56311;50.298;8.514;2022-12-05T10:31:46;97889.38;;;1.88;100.00
69198;BME280;56311;50.298;8.514;2022-12-05T10:34:16;97882.06;;;1.95;100.00
69198;BME280;56311;50.298;8.514;2022-12-05T10:36:54;97891.03;;;2.01;100.00
69198;BME280;56311;50.298;8.514;2022-12-05T10:39:21;97885.00;;;2.05;100.00
69198;BME280;56311;50.298;8.514;2022-12-05T10:41:49;97882.81;;;2.14;100.00
69198;BME280;56311;50.298;8.514;2022-12-05T10:44:16;97880.06;;;2.21;100.00
69198;BME280;56311;50.298;8.514;2022-12-05T10:46:43;97885.38;;;2.09;100.00
69198;BME280;56311;50.298;8.514;2022-12-05T10:49:10;97882.22;;;2.12;100.00
69198;BME280;56311;50.298;8.514;2022-12-05T10:51:39;97879.69;;;2.17;100.00
69198;BME280;56311;50.298;8.514;2022-12-05T10:54:15;97877.25;;;2.28;100.00
69198;BME280;56311;50.298;8.514;2022-12-05T10:56:44;97877.63;;;2.43;100.00
69198;BME280;56311;50.298;8.514;2022-12-05T10:59:15;97873.91;;;2.44;100.00
69198;BME280;56311;50.298;8.514;2022-12-05T11:01:46;97870.44;;;2.32;100.00
69198;BME280;56311;50.298;8.514;2022-12-05T11:04:24;97866.22;;;2.24;100.00
69198;BME280;56311;50.298;8.514;2022-12-05T11:06:54;97875.06;;;2.25;100.00
69198;BME280;56311;50.298;8.514;2022-12-05T11:09:24;97870.97;;;2.22;100.00
69198;BME280;56311;50.298;8.514;2022-12-05T11:12:15;97875.84;;;2.13;100.00
69198;BME280;56311;50.298;8.514;2022-12-05T11:14:59;97872.88;;;2.33;100.00
69198;BME280;56311;50.298;8.514;2022-12-05T11:17:30;97873.91;;;2.32;100.00
69198;BME280;56311;50.298;8.514;2022-12-05T11:19:58;97866.81;;;2.26;100.00
69198;BME280;56311;50.298;8.514;2022-12-05T11:22:33;97874.81;;;2.26;100.00
69198;BME280;56311;50.298;8.514;2022-12-05T11:25:00;97875.59;;;2.15;100.00
69198;BME280;56311;50.298;8.514;2022-12-05T11:27:47;97870.19;;;2.21;100.00
69198;BME280;56311;50.298;8.514;2022-12-05T11:30:17;97874.72;;;2.21;100.00
69198;BME280;56311;50.298;8.514;2022-12-05T11:32:45;97872.72;;;2.16;100.00
69198;BME280;56311;50.298;8.514;2022-12-05T11:35:21;97877.72;;;2.13;100.00
69198;BME280;56311;50.298;8.514;2022-12-05T11:37:53;97881.91;;;2.20;100.00
69198;BME280;56311;50.298;8.514;2022-12-05T11:40:27;97873.56;;;2.29;100.00
69198;BME280;56311;50.298;8.514;2022-12-05T11:43:38;97872.03;;;2.33;100.00
69198;BME280;56311;50.298;8.514;2022-12-05T11:46:17;97866.84;;;2.38;100.00
69198;BME280;56311;50.298;8.514;2022-12-05T11:49:01;97866.34;;;2.41;100.00
69198;BME280;56311;50.298;8.514;2022-12-05T11:51:38;97872.72;;;2.40;100.00
69198;BME280;56311;50.298;8.514;2022-12-05T11:54:19;97874.94;;;2.31;100.00
69198;BME280;56311;50.298;8.514;2022-12-05T11:57:16;97873.66;;;2.34;100.00
69198;BME280;56311;50.298;8.514;2022-12-05T12:00:12;97877.53;;;2.50;100.00
69198;BME280;56311;50.298;8.514;2022-12-05T12:05:38;97876.22;;;2.29;100.00
69198;BME280;56311;50.298;8.514;2022-12-05T12:08:15;97882.00;;;2.26;100.00
69198;BME280;56311;50.298;8.514;2022-12-05T12:10:51;97880.28;;;2.31;100.00
69198;BME280;56311;50.298;8.514;2022-12-05T12:13:29;97877.97;;;2.35;100.00
69198;BME280;56311;50.298;8.514;2022-12-05T12:16:08;97877.16;;;2.34;100.00
69198;BME280;56311;50.298;8.514;2022-12-05T12:18:55;97873.09;;;2.44;100.00
69198;BME280;56311;50.298;8.514;2022-12-05T12:21:33;97875.31;;;2.59;100.00
69198;BME280;56311;50.298;8.514;2022-12-05T12:24:13;97876.09;;;2.59;100.00
69198;BME280;56311;50.298;8.514;2022-12-05T12:26:52;97881.09;;;2.55;100.00
69198;BME280;56311;50.298;8.514;2022-12-05T12:29:33;97878.19;;;2.69;100.00
69198;BME280;56311;50.298;8.514;2022-12-05T12:32:14;97880.31;;;2.67;100.00
69198;BME280;56311;50.298;8.514;2022-12-05T12:35:02;97874.03;;;2.49;100.00
69198;BME280;56311;50.298;8.514;2022-12-05T12:37:42;97884.69;;;2.37;100.00
69198;BME280;56311;50.298;8.514;2022-12-05T12:40:19;97871.69;;;2.41;100.00
69198;BME280;56311;50.298;8.514;2022-12-05T12:43:01;97872.19;;;2.50;100.00
69198;BME280;56311;50.298;8.514;2022-12-05T12:45:47;97874.72;;;2.45;100.00
69198;BME280;56311;50.298;8.514;2022-12-05T12:48:31;97885.88;;;2.42;100.00
69198;BME280;56311;50.298;8.514;2022-12-05T12:51:04;97877.03;;;2.41;100.00
69198;BME280;56311;50.298;8.514;2022-12-05T12:53:48;97880.97;;;2.38;100.00
69198;BME280;56311;50.298;8.514;2022-12-05T12:56:27;97874.72;;;2.45;100.00
69198;BME280;56311;50.298;8.514;2022-12-05T12:59:01;97870.06;;;2.52;100.00
69198;BME280;56311;50.298;8.514;2022-12-05T13:01:39;97886.78;;;2.47;100.00
69198;BME280;56311;50.298;8.514;2022-12-05T13:04:11;97880.06;;;2.45;100.00
69198;BME280;56311;50.298;8.514;2022-12-05T13:06:45;97881.91;;;2.32;100.00
69198;BME280;56311;50.298;8.514;2022-12-05T13:09:18;97891.31;;;2.35;100.00
69198;BME280;56311;50.298;8.514;2022-12-05T13:11:48;97886.56;;;2.37;100.00
69198;BME280;56311;50.298;8.514;2022-12-05T13:14:19;97876.34;;;2.46;100.00
69198;BME280;56311;50.298;8.514;2022-12-05T13:16:52;97880.88;;;2.33;100.00
69198;BME280;56311;50.298;8.514;2022-12-05T13:19:27;97874.69;;;2.33;100.00
69198;BME280;56311;50.298;8.514;2022-12-05T13:22:00;97876.81;;;2.31;100.00
69198;BME280;56311;50.298;8.514;2022-12-05T13:24:29;97877.97;;;2.35;100.00
69198;BME280;56311;50.298;8.514;2022-12-05T13:26:59;97872.97;;;2.27;100.00
69198;BME280;56311;50.298;8.514;2022-12-05T13:29:31;97883.53;;;2.21;100.00
69198;BME280;56311;50.298;8.514;2022-12-05T13:32:02;97888.41;;;2.13;100.00
69198;BME280;56311;50.298;8.514;2022-12-05T13:34:49;97886.41;;;2.08;100.00